sensor_id;sensor_type;location;lat;lon;timestamp;P1;durP1;ratioP1;P2;durP2;ratioP2
43070;SDS011;36278;47.952;21.714;2022-11-30T00:00:56;27.87;;;17.70;;
43070;SDS011;36278;47.952;21.714;2022-11-30T00:03:22;26.47;;;17.13;;
43070;SDS011;36278;47.952;21.714;2022-11-30T00:05:48;28.70;;;18.17;;
43070;SDS011;36278;47.952;21.714;2022-11-30T00:08:14;29.77;;;17.90;;
43070;SDS011;36278;47.952;21.714;2022-11-30T00:10:39;29.23;;;17.87;;
43070;SDS011;36278;47.952;21.714;2022-11-30T00:13:05;28.93;;;17.83;;
43070;SDS011;36278;47.952;21.714;2022-11-30T00:15:31;30.93;;;18.00;;
43070;SDS011;36278;47.952;21.714;2022-11-30T00:17:57;29.87;;;18.80;;
43070;SDS011;36278;47.952;21.714;2022-11-30T00:20:23;28.33;;;17.23;;
43070;SDS011;36278;47.952;21.714;2022-11-30T00:22:49;26.97;;;17.63;;
43070;SDS011;36278;47.952;21.714;2022-11-30T00:25:14;31.43;;;18.13;;
43070;SDS011;36278;47.952;21.714;2022-11-30T00:27:40;27.47;;;16.17;;
43070;SDS011;36278;47.952;21.714;2022-11-30T00:30:06;27.80;;;17.40;;
43070;SDS011;36278;47.952;21.714;2022-11-30T00:32:32;26.37;;;16.80;;
43070;SDS011;36278;47.952;21.714;2022-11-30T00:34:57;25.10;;;16.87;;
43070;SDS011;36278;47.952;21.714;2022-11-30T00:37:24;26.10;;;16.23;;
43070;SDS011;36278;47.952;21.714;2022-11-30T00:39:49;26.70;;;16.50;;
43070;SDS011;36278;47.952;21.714;2022-11-30T00:42:15;28.70;;;16.97;;
43070;SDS011;36278;47.952;21.714;2022-11-30T00:44:40;30.43;;;17.97;;
43070;SDS011;36278;47.952;21.714;2022-11-30T00:47:05;25.77;;;15.93;;
43070;SDS011;36278;47.952;21.714;2022-11-30T00:49:31;26.23;;;17.43;;
43070;SDS011;36278;47.952;21.714;2022-11-30T00:51:58;25.17;;;16.73;;
43070;SDS011;36278;47.952;21.714;2022-11-30T00:54:24;24.07;;;16.50;;
43070;SDS011;36278;47.952;21.714;2022-11-30T00:56:49;24.07;;;16.23;;
43070;SDS011;36278;47.952;21.714;2022-11-30T00:59:14;27.87;;;16.17;;
43070;SDS011;36278;47.952;21.714;2022-11-30T01:01:40;26.80;;;16.53;;
43070;SDS011;36278;47.952;21.714;2022-11-30T01:04:05;25.60;;;16.50;;
43070;SDS011;36278;47.952;21.714;2022-11-30T01:06:31;27.17;;;16.10;;
43070;SDS011;36278;47.952;21.714;2022-11-30T01:08:57;24.60;;;16.27;;
43070;SDS011;36278;47.952;21.714;2022-11-30T01:11:24;22.87;;;15.97;;
43070;SDS011;36278;47.952;21.714;2022-11-30T01:13:51;27.87;;;16.80;;
43070;SDS011;36278;47.952;21.714;2022-11-30T01:16:18;27.10;;;16.27;;
43070;SDS011;36278;47.952;21.714;2022-11-30T01:18:46;27.97;;;16.67;;
43070;SDS011;36278;47.952;21.714;2022-11-30T01:21:13;26.77;;;17.23;;
43070;SDS011;36278;47.952;21.714;2022-11-30T01:23:43;26.63;;;16.53;;
43070;SDS011;36278;47.952;21.714;2022-11-30T01:26:09;28.10;;;17.40;;
43070;SDS011;36278;47.952;21.714;2022-11-30T01:28:35;30.17;;;17.20;;
43070;SDS011;36278;47.952;21.714;2022-11-30T01:31:02;25.90;;;16.93;;
43070;SDS011;36278;47.952;21.714;2022-11-30T01:33:29;29.17;;;16.53;;
43070;SDS011;36278;47.952;21.714;2022-11-30T01:38:25;28.43;;;16.70;;
43070;SDS011;36278;47.952;21.714;2022-11-30T01:40:51;26.47;;;16.93;;
43070;SDS011;36278;47.952;21.714;2022-11-30T01:43:17;25.50;;;16.10;;
43070;SDS011;36278;47.952;21.714;2022-11-30T01:45:43;27.90;;;16.40;;
43070;SDS011;36278;47.952;21.714;2022-11-30T01:48:11;26.03;;;16.77;;
43070;SDS011;36278;47.952;21.714;2022-11-30T01:50:37;26.40;;;17.00;;
43070;SDS011;36278;47.952;21.714;2022-11-30T01:53:02;25.73;;;15.90;;
43070;SDS011;36278;47.952;21.714;2022-11-30T01:55:35;23.80;;;15.87;;
43070;SDS011;36278;47.952;21.714;2022-11-30T01:58:08;25.07;;;15.07;;
43070;SDS011;36278;47.952;21.714;2022-11-30T02:00:48;25.57;;;15.30;;
43070;SDS011;36278;47.952;21.714;2022-11-30T02:03:19;25.33;;;15.80;;
43070;SDS011;36278;47.952;21.714;2022-11-30T02:06:00;22.83;;;14.90;;
43070;SDS011;36278;47.952;21.714;2022-11-30T02:08:26;25.73;;;16.13;;
43070;SDS011;36278;47.952;21.714;2022-11-30T02:10:53;23.70;;;15.27;;
43070;SDS011;36278;47.952;21.714;2022-11-30T02:18:48;25.80;;;15.65;;
43070;SDS011;36278;47.952;21.714;2022-11-30T02:30:32;24.17;;;15.20;;
43070;SDS011;36278;47.952;21.714;2022-11-30T02:33:06;23.97;;;15.27;;
43070;SDS011;36278;47.952;21.714;2022-11-30T02:35:39;24.20;;;14.77;;
43070;SDS011;36278;47.952;21.714;2022-11-30T02:38:08;24.33;;;14.93;;
43070;SDS011;36278;47.952;21.714;2022-11-30T02:40:35;22.43;;;14.50;;
43070;SDS011;36278;47.952;21.714;2022-11-30T02:43:01;23.10;;;14.93;;
43070;SDS011;36278;47.952;21.714;2022-11-30T02:45:47;24.40;;;14.50;;
43070;SDS011;36278;47.952;21.714;2022-11-30T02:51:09;22.63;;;14.37;;
43070;SDS011;36278;47.952;21.714;2022-11-30T02:53:40;20.10;;;13.20;;
43070;SDS011;36278;47.952;21.714;2022-11-30T02:56:06;22.17;;;13.10;;
43070;SDS011;36278;47.952;21.714;2022-11-30T02:58:31;23.80;;;14.43;;
43070;SDS011;36278;47.952;21.714;2022-11-30T03:00:57;26.17;;;13.63;;
43070;SDS011;36278;47.952;21.714;2022-11-30T03:03:22;23.03;;;13.47;;
43070;SDS011;36278;47.952;21.714;2022-11-30T03:05:47;22.13;;;13.67;;
43070;SDS011;36278;47.952;21.714;2022-11-30T03:08:13;23.10;;;14.90;;
43070;SDS011;36278;47.952;21.714;2022-11-30T03:10:38;22.07;;;14.43;;
43070;SDS011;36278;47.952;21.714;2022-11-30T03:13:04;21.10;;;13.87;;
43070;SDS011;36278;47.952;21.714;2022-11-30T03:15:29;21.47;;;14.47;;
43070;SDS011;36278;47.952;21.714;2022-11-30T03:17:55;24.37;;;14.27;;
43070;SDS011;36278;47.952;21.714;2022-11-30T03:20:20;20.97;;;13.33;;
43070;SDS011;36278;47.952;21.714;2022-11-30T03:22:46;21.90;;;13.93;;
43070;SDS011;36278;47.952;21.714;2022-11-30T03:25:11;21.27;;;13.63;;
43070;SDS011;36278;47.952;21.714;2022-11-30T03:27:36;17.77;;;12.37;;
43070;SDS011;36278;47.952;21.714;2022-11-30T03:30:02;19.60;;;13.17;;
43070;SDS011;36278;47.952;21.714;2022-11-30T03:32:28;21.57;;;12.77;;
43070;SDS011;36278;47.952;21.714;2022-11-30T03:34:55;21.40;;;13.43;;
43070;SDS011;36278;47.952;21.714;2022-11-30T03:37:20;20.67;;;13.33;;
43070;SDS011;36278;47.952;21.714;2022-11-30T03:39:46;19.70;;;12.83;;
43070;SDS011;36278;47.952;21.714;2022-11-30T03:42:11;20.43;;;13.60;;
43070;SDS011;36278;47.952;21.714;2022-11-30T03:44:36;18.60;;;12.47;;
43070;SDS011;36278;47.952;21.714;2022-11-30T03:47:02;19.80;;;12.10;;
43070;SDS011;36278;47.952;21.714;2022-11-30T03:49:27;18.87;;;12.60;;
43070;SDS011;36278;47.952;21.714;2022-11-30T03:51:53;19.67;;;12.73;;
43070;SDS011;36278;47.952;21.714;2022-11-30T03:54:18;23.07;;;13.47;;
43070;SDS011;36278;47.952;21.714;2022-11-30T03:56:43;18.33;;;12.17;;
43070;SDS011;36278;47.952;21.714;2022-11-30T03:59:09;19.97;;;12.43;;
43070;SDS011;36278;47.952;21.714;2022-11-30T04:01:34;20.87;;;12.70;;
43070;SDS011;36278;47.952;21.714;2022-11-30T04:04:00;18.67;;;11.90;;
43070;SDS011;36278;47.952;21.714;2022-11-30T04:06:26;20.17;;;12.27;;
43070;SDS011;36278;47.952;21.714;2022-11-30T04:08:51;19.17;;;10.97;;
43070;SDS011;36278;47.952;21.714;2022-11-30T04:11:17;19.57;;;11.93;;
43070;SDS011;36278;47.952;21.714;2022-11-30T04:13:42;18.47;;;11.57;;
43070;SDS011;36278;47.952;21.714;2022-11-30T04:16:08;17.20;;;11.30;;
43070;SDS011;36278;47.952;21.714;2022-11-30T04:18:34;20.33;;;12.07;;
43070;SDS011;36278;47.952;21.714;2022-11-30T04:21:00;17.37;;;11.47;;
43070;SDS011;36278;47.952;21.714;2022-11-30T04:23:28;18.17;;;11.43;;
43070;SDS011;36278;47.952;21.714;2022-11-30T04:26:04;18.77;;;11.97;;
43070;SDS011;36278;47.952;21.714;2022-11-30T04:28:32;21.73;;;11.37;;
43070;SDS011;36278;47.952;21.714;2022-11-30T04:30:57;15.77;;;10.30;;
43070;SDS011;36278;47.952;21.714;2022-11-30T04:33:25;17.60;;;10.83;;
43070;SDS011;36278;47.952;21.714;2022-11-30T04:35:53;18.57;;;11.83;;
43070;SDS011;36278;47.952;21.714;2022-11-30T04:38:20;18.03;;;10.60;;
43070;SDS011;36278;47.952;21.714;2022-11-30T04:40:46;16.70;;;9.93;;
43070;SDS011;36278;47.952;21.714;2022-11-30T04:43:11;19.20;;;11.27;;
43070;SDS011;36278;47.952;21.714;2022-11-30T04:45:37;18.00;;;11.63;;
43070;SDS011;36278;47.952;21.714;2022-11-30T04:48:03;16.57;;;10.67;;
43070;SDS011;36278;47.952;21.714;2022-11-30T04:50:29;16.07;;;10.90;;
43070;SDS011;36278;47.952;21.714;2022-11-30T04:52:55;18.13;;;11.07;;
43070;SDS011;36278;47.952;21.714;2022-11-30T04:55:21;17.53;;;10.10;;
43070;SDS011;36278;47.952;21.714;2022-11-30T04:57:46;15.00;;;10.47;;
43070;SDS011;36278;47.952;21.714;2022-11-30T05:00:13;17.90;;;9.93;;
43070;SDS011;36278;47.952;21.714;2022-11-30T05:02:39;15.77;;;9.90;;
43070;SDS011;36278;47.952;21.714;2022-11-30T05:05:05;15.47;;;9.93;;
43070;SDS011;36278;47.952;21.714;2022-11-30T05:07:31;19.70;;;11.20;;
43070;SDS011;36278;47.952;21.714;2022-11-30T05:09:57;17.47;;;10.40;;
43070;SDS011;36278;47.952;21.714;2022-11-30T05:12:22;23.63;;;11.00;;
43070;SDS011;36278;47.952;21.714;2022-11-30T05:14:48;19.63;;;10.67;;
43070;SDS011;36278;47.952;21.714;2022-11-30T05:17:17;20.00;;;11.50;;
43070;SDS011;36278;47.952;21.714;2022-11-30T05:19:42;17.00;;;11.03;;
43070;SDS011;36278;47.952;21.714;2022-11-30T05:22:08;18.93;;;11.27;;
43070;SDS011;36278;47.952;21.714;2022-11-30T05:24:33;19.83;;;9.93;;
43070;SDS011;36278;47.952;21.714;2022-11-30T05:26:59;18.87;;;10.37;;
43070;SDS011;36278;47.952;21.714;2022-11-30T05:29:25;17.77;;;10.43;;
43070;SDS011;36278;47.952;21.714;2022-11-30T05:31:50;17.50;;;10.43;;
43070;SDS011;36278;47.952;21.714;2022-11-30T05:34:16;16.27;;;9.73;;
43070;SDS011;36278;47.952;21.714;2022-11-30T05:36:42;15.20;;;10.37;;
43070;SDS011;36278;47.952;21.714;2022-11-30T05:39:07;18.50;;;10.70;;
43070;SDS011;36278;47.952;21.714;2022-11-30T05:41:33;16.13;;;10.37;;
43070;SDS011;36278;47.952;21.714;2022-11-30T05:43:58;19.10;;;10.93;;
43070;SDS011;36278;47.952;21.714;2022-11-30T05:46:24;15.50;;;9.50;;
43070;SDS011;36278;47.952;21.714;2022-11-30T05:48:49;18.40;;;10.20;;
43070;SDS011;36278;47.952;21.714;2022-11-30T05:51:16;20.40;;;13.00;;
43070;SDS011;36278;47.952;21.714;2022-11-30T05:53:43;17.67;;;11.13;;
43070;SDS011;36278;47.952;21.714;2022-11-30T05:56:10;17.17;;;10.70;;
43070;SDS011;36278;47.952;21.714;2022-11-30T05:58:37;16.80;;;10.40;;
43070;SDS011;36278;47.952;21.714;2022-11-30T06:01:04;16.03;;;10.50;;
43070;SDS011;36278;47.952;21.714;2022-11-30T06:03:30;15.93;;;10.60;;
43070;SDS011;36278;47.952;21.714;2022-11-30T06:05:58;14.27;;;9.67;;
43070;SDS011;36278;47.952;21.714;2022-11-30T06:08:25;16.37;;;9.83;;
43070;SDS011;36278;47.952;21.714;2022-11-30T06:10:50;16.97;;;10.67;;
43070;SDS011;36278;47.952;21.714;2022-11-30T06:13:16;19.37;;;10.37;;
43070;SDS011;36278;47.952;21.714;2022-11-30T06:15:42;14.97;;;9.73;;
43070;SDS011;36278;47.952;21.714;2022-11-30T06:18:08;16.37;;;10.33;;
43070;SDS011;36278;47.952;21.714;2022-11-30T06:20:36;19.90;;;10.53;;
43070;SDS011;36278;47.952;21.714;2022-11-30T06:23:01;18.53;;;11.17;;
43070;SDS011;36278;47.952;21.714;2022-11-30T06:25:27;21.20;;;11.10;;
43070;SDS011;36278;47.952;21.714;2022-11-30T06:27:53;18.10;;;11.37;;
43070;SDS011;36278;47.952;21.714;2022-11-30T06:30:18;17.70;;;11.67;;
43070;SDS011;36278;47.952;21.714;2022-11-30T06:32:45;18.10;;;10.87;;
43070;SDS011;36278;47.952;21.714;2022-11-30T06:35:11;19.50;;;10.83;;
43070;SDS011;36278;47.952;21.714;2022-11-30T06:37:37;26.70;;;14.27;;
43070;SDS011;36278;47.952;21.714;2022-11-30T06:40:02;18.90;;;11.07;;
43070;SDS011;36278;47.952;21.714;2022-11-30T06:42:29;19.27;;;11.10;;
43070;SDS011;36278;47.952;21.714;2022-11-30T06:44:56;15.77;;;10.60;;
43070;SDS011;36278;47.952;21.714;2022-11-30T06:47:22;16.37;;;10.80;;
43070;SDS011;36278;47.952;21.714;2022-11-30T06:49:47;18.43;;;9.87;;
43070;SDS011;36278;47.952;21.714;2022-11-30T06:52:12;15.13;;;9.43;;
43070;SDS011;36278;47.952;21.714;2022-11-30T06:54:38;18.80;;;10.13;;
43070;SDS011;36278;47.952;21.714;2022-11-30T06:57:03;15.33;;;10.03;;
43070;SDS011;36278;47.952;21.714;2022-11-30T06:59:29;20.33;;;11.47;;
43070;SDS011;36278;47.952;21.714;2022-11-30T07:01:54;18.20;;;9.43;;
43070;SDS011;36278;47.952;21.714;2022-11-30T07:04:20;15.37;;;10.10;;
43070;SDS011;36278;47.952;21.714;2022-11-30T07:06:46;16.30;;;9.67;;
43070;SDS011;36278;47.952;21.714;2022-11-30T07:09:11;14.10;;;9.03;;
43070;SDS011;36278;47.952;21.714;2022-11-30T07:11:37;17.57;;;9.20;;
43070;SDS011;36278;47.952;21.714;2022-11-30T07:14:03;14.47;;;9.37;;
43070;SDS011;36278;47.952;21.714;2022-11-30T07:16:28;16.67;;;8.40;;
43070;SDS011;36278;47.952;21.714;2022-11-30T07:18:54;14.73;;;9.33;;
43070;SDS011;36278;47.952;21.714;2022-11-30T07:21:19;15.00;;;9.13;;
43070;SDS011;36278;47.952;21.714;2022-11-30T07:23:45;18.83;;;12.00;;
43070;SDS011;36278;47.952;21.714;2022-11-30T07:26:29;15.70;;;9.57;;
43070;SDS011;36278;47.952;21.714;2022-11-30T07:28:54;12.80;;;9.00;;
43070;SDS011;36278;47.952;21.714;2022-11-30T07:31:23;18.07;;;9.60;;
43070;SDS011;36278;47.952;21.714;2022-11-30T07:33:50;18.10;;;8.90;;
43070;SDS011;36278;47.952;21.714;2022-11-30T07:36:17;15.43;;;9.70;;
43070;SDS011;36278;47.952;21.714;2022-11-30T07:38:44;16.03;;;10.47;;
43070;SDS011;36278;47.952;21.714;2022-11-30T07:41:10;17.47;;;10.23;;
43070;SDS011;36278;47.952;21.714;2022-11-30T07:43:36;15.30;;;10.80;;
43070;SDS011;36278;47.952;21.714;2022-11-30T07:46:01;16.73;;;10.17;;
43070;SDS011;36278;47.952;21.714;2022-11-30T07:48:27;18.27;;;11.63;;
43070;SDS011;36278;47.952;21.714;2022-11-30T07:50:53;19.77;;;10.10;;
43070;SDS011;36278;47.952;21.714;2022-11-30T07:53:25;20.37;;;10.47;;
43070;SDS011;36278;47.952;21.714;2022-11-30T07:55:50;17.57;;;10.93;;
43070;SDS011;36278;47.952;21.714;2022-11-30T07:58:16;22.00;;;10.70;;
43070;SDS011;36278;47.952;21.714;2022-11-30T08:00:41;18.60;;;10.93;;
43070;SDS011;36278;47.952;21.714;2022-11-30T08:03:06;18.63;;;11.23;;
43070;SDS011;36278;47.952;21.714;2022-11-30T08:05:32;19.73;;;12.17;;
43070;SDS011;36278;47.952;21.714;2022-11-30T08:07:58;25.00;;;14.87;;
43070;SDS011;36278;47.952;21.714;2022-11-30T08:10:23;20.33;;;12.30;;
43070;SDS011;36278;47.952;21.714;2022-11-30T08:12:49;24.93;;;11.63;;
43070;SDS011;36278;47.952;21.714;2022-11-30T08:15:14;15.83;;;10.70;;
43070;SDS011;36278;47.952;21.714;2022-11-30T08:17:41;14.97;;;10.17;;
43070;SDS011;36278;47.952;21.714;2022-11-30T08:20:07;22.00;;;11.47;;
43070;SDS011;36278;47.952;21.714;2022-11-30T08:22:34;15.80;;;10.13;;
43070;SDS011;36278;47.952;21.714;2022-11-30T08:25:00;17.27;;;10.67;;
43070;SDS011;36278;47.952;21.714;2022-11-30T08:27:26;17.97;;;9.97;;
43070;SDS011;36278;47.952;21.714;2022-11-30T08:29:51;16.20;;;9.73;;
43070;SDS011;36278;47.952;21.714;2022-11-30T08:32:17;23.83;;;11.93;;
43070;SDS011;36278;47.952;21.714;2022-11-30T08:34:43;18.20;;;10.93;;
43070;SDS011;36278;47.952;21.714;2022-11-30T08:37:08;18.80;;;11.40;;
43070;SDS011;36278;47.952;21.714;2022-11-30T08:39:33;23.23;;;13.07;;
43070;SDS011;36278;47.952;21.714;2022-11-30T08:41:59;17.87;;;10.97;;
43070;SDS011;36278;47.952;21.714;2022-11-30T08:44:26;23.93;;;12.33;;
43070;SDS011;36278;47.952;21.714;2022-11-30T08:46:53;22.27;;;12.07;;
43070;SDS011;36278;47.952;21.714;2022-11-30T08:49:18;21.53;;;10.00;;
43070;SDS011;36278;47.952;21.714;2022-11-30T08:51:45;17.40;;;9.73;;
43070;SDS011;36278;47.952;21.714;2022-11-30T08:54:11;16.00;;;9.93;;
43070;SDS011;36278;47.952;21.714;2022-11-30T08:56:36;16.57;;;9.67;;
43070;SDS011;36278;47.952;21.714;2022-11-30T08:59:02;22.67;;;10.10;;
43070;SDS011;36278;47.952;21.714;2022-11-30T09:01:27;14.97;;;9.47;;
43070;SDS011;36278;47.952;21.714;2022-11-30T09:03:53;17.93;;;9.90;;
43070;SDS011;36278;47.952;21.714;2022-11-30T09:06:25;26.43;;;10.13;;
43070;SDS011;36278;47.952;21.714;2022-11-30T09:08:53;15.10;;;9.13;;
43070;SDS011;36278;47.952;21.714;2022-11-30T09:11:21;16.97;;;9.77;;
43070;SDS011;36278;47.952;21.714;2022-11-30T09:13:52;15.57;;;9.13;;
43070;SDS011;36278;47.952;21.714;2022-11-30T09:16:19;15.37;;;8.63;;
43070;SDS011;36278;47.952;21.714;2022-11-30T09:18:46;20.93;;;9.60;;
43070;SDS011;36278;47.952;21.714;2022-11-30T09:21:12;14.27;;;8.37;;
43070;SDS011;36278;47.952;21.714;2022-11-30T09:23:39;13.97;;;8.07;;
43070;SDS011;36278;47.952;21.714;2022-11-30T09:26:07;34.20;;;11.27;;
43070;SDS011;36278;47.952;21.714;2022-11-30T09:28:36;13.83;;;8.70;;
43070;SDS011;36278;47.952;21.714;2022-11-30T09:33:32;29.67;;;11.00;;
43070;SDS011;36278;47.952;21.714;2022-11-30T09:35:59;16.27;;;9.10;;
43070;SDS011;36278;47.952;21.714;2022-11-30T09:38:27;17.20;;;9.50;;
43070;SDS011;36278;47.952;21.714;2022-11-30T09:40:53;17.97;;;8.70;;
43070;SDS011;36278;47.952;21.714;2022-11-30T09:45:55;20.27;;;9.43;;
43070;SDS011;36278;47.952;21.714;2022-11-30T09:51:08;13.80;;;8.50;;
43070;SDS011;36278;47.952;21.714;2022-11-30T09:53:43;15.83;;;8.97;;
43070;SDS011;36278;47.952;21.714;2022-11-30T09:56:26;19.33;;;9.33;;
43070;SDS011;36278;47.952;21.714;2022-11-30T09:58:57;12.50;;;8.73;;
43070;SDS011;36278;47.952;21.714;2022-11-30T10:01:28;12.33;;;7.70;;
43070;SDS011;36278;47.952;21.714;2022-11-30T10:03:54;11.47;;;7.60;;
43070;SDS011;36278;47.952;21.714;2022-11-30T10:17:33;16.77;;;9.23;;
43070;SDS011;36278;47.952;21.714;2022-11-30T10:20:17;22.03;;;9.63;;
43070;SDS011;36278;47.952;21.714;2022-11-30T10:22:53;16.95;;;9.25;;
43070;SDS011;36278;47.952;21.714;2022-11-30T10:28:17;15.47;;;8.37;;
43070;SDS011;36278;47.952;21.714;2022-11-30T10:30:54;13.63;;;8.40;;
43070;SDS011;36278;47.952;21.714;2022-11-30T10:33:22;13.33;;;7.97;;
43070;SDS011;36278;47.952;21.714;2022-11-30T10:35:52;11.73;;;7.87;;
43070;SDS011;36278;47.952;21.714;2022-11-30T10:38:21;12.00;;;7.20;;
43070;SDS011;36278;47.952;21.714;2022-11-30T10:43:30;11.13;;;7.50;;
43070;SDS011;36278;47.952;21.714;2022-11-30T10:46:02;12.17;;;7.17;;
43070;SDS011;36278;47.952;21.714;2022-11-30T10:51:07;12.40;;;8.30;;
43070;SDS011;36278;47.952;21.714;2022-11-30T10:53:36;13.83;;;8.17;;
43070;SDS011;36278;47.952;21.714;2022-11-30T10:56:03;11.30;;;8.00;;
43070;SDS011;36278;47.952;21.714;2022-11-30T11:01:35;11.97;;;7.93;;
43070;SDS011;36278;47.952;21.714;2022-11-30T11:06:33;16.13;;;8.87;;
43070;SDS011;36278;47.952;21.714;2022-11-30T11:09:43;12.37;;;8.20;;
43070;SDS011;36278;47.952;21.714;2022-11-30T11:12:02;13.27;;;7.90;;
43070;SDS011;36278;47.952;21.714;2022-11-30T11:14:38;12.77;;;8.20;;
43070;SDS011;36278;47.952;21.714;2022-11-30T11:17:25;11.93;;;8.03;;
43070;SDS011;36278;47.952;21.714;2022-11-30T11:19:50;12.07;;;8.40;;
43070;SDS011;36278;47.952;21.714;2022-11-30T11:22:23;14.47;;;9.93;;
43070;SDS011;36278;47.952;21.714;2022-11-30T11:24:52;11.47;;;8.00;;
43070;SDS011;36278;47.952;21.714;2022-11-30T11:38:26;12.77;;;7.23;;
43070;SDS011;36278;47.952;21.714;2022-11-30T11:43:20;13.20;;;8.03;;
43070;SDS011;36278;47.952;21.714;2022-11-30T11:45:52;13.80;;;8.97;;
43070;SDS011;36278;47.952;21.714;2022-11-30T11:48:36;13.67;;;9.07;;
43070;SDS011;36278;47.952;21.714;2022-11-30T11:51:08;18.60;;;9.33;;
43070;SDS011;36278;47.952;21.714;2022-11-30T11:53:48;16.60;;;10.07;;
43070;SDS011;36278;47.952;21.714;2022-11-30T11:56:21;15.87;;;9.07;;
43070;SDS011;36278;47.952;21.714;2022-11-30T12:01:47;11.80;;;8.27;;
43070;SDS011;36278;47.952;21.714;2022-11-30T12:04:30;13.50;;;8.50;;
43070;SDS011;36278;47.952;21.714;2022-11-30T12:07:13;14.37;;;8.77;;
43070;SDS011;36278;47.952;21.714;2022-11-30T12:10:02;11.70;;;8.50;;
43070;SDS011;36278;47.952;21.714;2022-11-30T12:12:37;15.23;;;9.37;;
43070;SDS011;36278;47.952;21.714;2022-11-30T12:15:04;13.93;;;8.70;;
43070;SDS011;36278;47.952;21.714;2022-11-30T12:20:51;10.97;;;7.73;;
43070;SDS011;36278;47.952;21.714;2022-11-30T12:23:27;18.27;;;9.33;;
43070;SDS011;36278;47.952;21.714;2022-11-30T12:26:19;15.07;;;9.00;;
43070;SDS011;36278;47.952;21.714;2022-11-30T12:56:34;19.60;;;12.83;;
43070;SDS011;36278;47.952;21.714;2022-11-30T13:05:10;17.30;;;11.23;;
43070;SDS011;36278;47.952;21.714;2022-11-30T13:07:38;17.60;;;11.10;;
43070;SDS011;36278;47.952;21.714;2022-11-30T13:10:25;16.83;;;10.20;;
43070;SDS011;36278;47.952;21.714;2022-11-30T13:13:13;15.73;;;10.37;;
43070;SDS011;36278;47.952;21.714;2022-11-30T13:15:43;18.53;;;10.20;;
43070;SDS011;36278;47.952;21.714;2022-11-30T13:18:10;16.13;;;10.60;;
43070;SDS011;36278;47.952;21.714;2022-11-30T13:20:43;18.13;;;10.67;;
43070;SDS011;36278;47.952;21.714;2022-11-30T13:28:50;21.60;;;14.73;;
43070;SDS011;36278;47.952;21.714;2022-11-30T13:34:03;15.50;;;10.30;;
43070;SDS011;36278;47.952;21.714;2022-11-30T13:36:45;17.60;;;10.93;;
43070;SDS011;36278;47.952;21.714;2022-11-30T13:41:38;17.57;;;11.00;;
43070;SDS011;36278;47.952;21.714;2022-11-30T13:47:04;16.27;;;10.90;;
43070;SDS011;36278;47.952;21.714;2022-11-30T13:49:40;17.83;;;10.87;;
43070;SDS011;36278;47.952;21.714;2022-11-30T13:52:09;17.00;;;10.70;;
43070;SDS011;36278;47.952;21.714;2022-11-30T13:54:42;17.37;;;10.40;;
43070;SDS011;36278;47.952;21.714;2022-11-30T13:57:17;17.77;;;10.90;;
43070;SDS011;36278;47.952;21.714;2022-11-30T13:59:44;15.93;;;10.50;;
43070;SDS011;36278;47.952;21.714;2022-11-30T14:07:44;16.20;;;10.10;;
43070;SDS011;36278;47.952;21.714;2022-11-30T14:10:31;18.70;;;11.13;;
43070;SDS011;36278;47.952;21.714;2022-11-30T14:20:56;18.93;;;11.37;;
43070;SDS011;36278;47.952;21.714;2022-11-30T14:26:05;17.17;;;10.43;;
43070;SDS011;36278;47.952;21.714;2022-11-30T14:28:39;16.93;;;11.43;;
43070;SDS011;36278;47.952;21.714;2022-11-30T14:31:07;19.77;;;12.48;;
43070;SDS011;36278;47.952;21.714;2022-11-30T14:33:52;16.50;;;11.30;;
43070;SDS011;36278;47.952;21.714;2022-11-30T14:36:20;17.07;;;12.33;;
43070;SDS011;36278;47.952;21.714;2022-11-30T14:38:50;21.40;;;13.60;;
43070;SDS011;36278;47.952;21.714;2022-11-30T14:41:24;22.13;;;12.67;;
43070;SDS011;36278;47.952;21.714;2022-11-30T14:44:05;23.10;;;14.17;;
43070;SDS011;36278;47.952;21.714;2022-11-30T14:46:36;17.33;;;12.17;;
43070;SDS011;36278;47.952;21.714;2022-11-30T14:49:03;20.07;;;12.50;;
43070;SDS011;36278;47.952;21.714;2022-11-30T14:51:31;19.10;;;12.93;;
43070;SDS011;36278;47.952;21.714;2022-11-30T14:54:19;18.57;;;12.17;;
43070;SDS011;36278;47.952;21.714;2022-11-30T14:56:57;21.03;;;13.50;;
43070;SDS011;36278;47.952;21.714;2022-11-30T14:59:44;22.73;;;11.97;;
43070;SDS011;36278;47.952;21.714;2022-11-30T15:02:20;18.63;;;12.37;;
43070;SDS011;36278;47.952;21.714;2022-11-30T15:04:50;19.30;;;12.17;;
43070;SDS011;36278;47.952;21.714;2022-11-30T15:07:18;21.57;;;11.50;;
43070;SDS011;36278;47.952;21.714;2022-11-30T15:09:45;19.93;;;13.10;;
43070;SDS011;36278;47.952;21.714;2022-11-30T15:12:18;20.37;;;13.43;;
43070;SDS011;36278;47.952;21.714;2022-11-30T15:22:50;21.27;;;13.90;;
43070;SDS011;36278;47.952;21.714;2022-11-30T15:25:16;23.67;;;16.10;;
43070;SDS011;36278;47.952;21.714;2022-11-30T15:27:42;30.07;;;16.77;;
43070;SDS011;36278;47.952;21.714;2022-11-30T15:30:12;28.53;;;16.87;;
43070;SDS011;36278;47.952;21.714;2022-11-30T15:32:38;28.20;;;16.70;;
43070;SDS011;36278;47.952;21.714;2022-11-30T15:35:04;27.40;;;15.87;;
43070;SDS011;36278;47.952;21.714;2022-11-30T15:37:30;24.77;;;15.73;;
43070;SDS011;36278;47.952;21.714;2022-11-30T15:39:59;22.80;;;14.80;;
43070;SDS011;36278;47.952;21.714;2022-11-30T15:42:28;26.40;;;14.87;;
43070;SDS011;36278;47.952;21.714;2022-11-30T15:47:49;25.87;;;15.30;;
43070;SDS011;36278;47.952;21.714;2022-11-30T15:52:50;25.83;;;15.10;;
43070;SDS011;36278;47.952;21.714;2022-11-30T16:01:19;26.27;;;14.90;;
43070;SDS011;36278;47.952;21.714;2022-11-30T16:06:21;23.83;;;14.77;;
43070;SDS011;36278;47.952;21.714;2022-11-30T16:09:03;27.03;;;15.27;;
43070;SDS011;36278;47.952;21.714;2022-11-30T16:11:48;25.80;;;15.43;;
43070;SDS011;36278;47.952;21.714;2022-11-30T16:14:17;26.20;;;15.93;;
43070;SDS011;36278;47.952;21.714;2022-11-30T16:16:43;23.10;;;14.87;;
43070;SDS011;36278;47.952;21.714;2022-11-30T16:19:09;22.03;;;13.73;;
43070;SDS011;36278;47.952;21.714;2022-11-30T16:21:34;24.70;;;14.47;;
43070;SDS011;36278;47.952;21.714;2022-11-30T16:24:00;25.00;;;15.37;;
43070;SDS011;36278;47.952;21.714;2022-11-30T16:26:26;24.50;;;14.63;;
43070;SDS011;36278;47.952;21.714;2022-11-30T16:28:51;24.23;;;14.60;;
43070;SDS011;36278;47.952;21.714;2022-11-30T16:31:19;23.00;;;14.33;;
43070;SDS011;36278;47.952;21.714;2022-11-30T16:33:47;25.20;;;14.53;;
43070;SDS011;36278;47.952;21.714;2022-11-30T16:38:40;24.90;;;14.73;;
43070;SDS011;36278;47.952;21.714;2022-11-30T16:41:17;25.47;;;15.50;;
43070;SDS011;36278;47.952;21.714;2022-11-30T16:43:51;20.27;;;13.83;;
43070;SDS011;36278;47.952;21.714;2022-11-30T16:46:19;24.30;;;14.43;;
43070;SDS011;36278;47.952;21.714;2022-11-30T16:48:47;22.77;;;14.63;;
43070;SDS011;36278;47.952;21.714;2022-11-30T16:51:46;25.47;;;15.77;;
43070;SDS011;36278;47.952;21.714;2022-11-30T16:54:08;24.10;;;14.43;;
43070;SDS011;36278;47.952;21.714;2022-11-30T16:56:36;22.83;;;14.50;;
43070;SDS011;36278;47.952;21.714;2022-11-30T16:59:01;22.23;;;14.30;;